This is the latest recevied weather packets stored in our database for station/object EA3GKP-10. If no packets are shown the sender has not sent any weather packets the latest 10 day(s).
| Time | Temp. | Humidity | Pressure | Rain* | Wind** | Luminosity | Snow |
|---|---|---|---|---|---|---|---|
| 1778006265 | 21.67° C | - | - | 0 mm | 0 m/s | - | - |
| 1778005959 | 21.67° C | - | - | 0 mm | 1.79 m/s, 46° | - | - |
| 1778005654 | 21.11° C | - | - | 0 mm | 1.34 m/s, 84° | - | - |
| 1778004744 | 22.22° C | - | - | 0 mm | 1.34 m/s, 73° | - | - |
| 1778004440 | 22.78° C | - | - | 0 mm | 1.34 m/s, 48° | - | - |
| 1778003834 | 21.67° C | - | - | 0 mm | 0.45 m/s, 146° | - | - |
| 1778003224 | 22.22° C | - | - | 0 mm | 0.89 m/s, 105° | - | - |
| 1778002918 | 21.11° C | - | - | 0 mm | 0.89 m/s, 359° | - | - |
| 1778002614 | 22.22° C | - | - | 0 mm | 0 m/s | - | - |
| 1778002310 | 21.11° C | - | - | 0 mm | 0 m/s | - | - |
| 1778002007 | 21.67° C | - | - | 0 mm | 0 m/s | - | - |
| 1778001704 | 21.11° C | - | - | 0 mm | 0.89 m/s, 120° | - | - |
| 1778001402 | 22.78° C | - | - | 0 mm | 0.45 m/s, 359° | - | - |
| 1778001098 | 22.22° C | - | - | 0 mm | 2.24 m/s, 110° | - | - |
| 1778000794 | 21.11° C | - | - | 0 mm | 0 m/s | - | - |
| 1778000490 | 21.67° C | - | - | 0 mm | 0.89 m/s, 359° | - | - |
| 1778000187 | 21.11° C | - | - | 0 mm | 0 m/s | - | - |
| 1777999883 | 20.56° C | - | - | 0 mm | 2.68 m/s, 359° | - | - |
| 1777999577 | 20.56° C | - | - | 0 mm | 1.79 m/s, 359° | - | - |
| 1777999274 | 21.67° C | - | - | 0 mm | 0 m/s | - | - |
| 1777998970 | 21.11° C | - | - | 0 mm | 1.34 m/s, 359° | - | - |
| 1777998666 | 21.11° C | - | - | 0 mm | 2.24 m/s, 359° | - | - |
| 1777998363 | 21.67° C | - | - | 0 mm | 0 m/s | - | - |
| 1777998059 | 21.67° C | - | - | 0 mm | 2.68 m/s, 90° | - | - |
| 1777997751 | 21.67° C | - | - | 0 mm | 0.89 m/s, 359° | - | - |
* Rain latest hour (hover to see other rain measurements)
** Current wind speed in m/s (hover to see current wind gust speed)